Time,TemperatureF,DewpointF,PressureIn,WindDirection,WindDirectionDegrees,WindSpeedMPH,WindSpeedGustMPH,Humidity,HourlyPrecipIn,Conditions,Clouds,dailyrainin,SoftwareType,DateUTC
2013-03-08 00:02:00,22.6,15.6,30.35,SE,131,3.0,4.0,74,0.00,,CLR,0.00,VWS V14.01,2013-03-08 06:02:00,
2013-03-08 00:07:00,22.4,15.4,30.35,SE,143,3.0,4.0,74,0.00,,CLR,0.00,VWS V14.01,2013-03-08 06:07:00,
2013-03-08 00:12:00,22.2,15.5,30.35,SE,133,3.0,4.0,75,0.00,,CLR,0.00,VWS V14.01,2013-03-08 06:12:00,
2013-03-08 00:17:00,22.0,15.3,30.35,SE,130,1.0,4.0,75,0.00,,CLR,0.00,VWS V14.01,2013-03-08 06:17:00,
2013-03-08 00:22:00,22.0,15.3,30.35,SE,131,3.0,5.0,75,0.00,,CLR,0.00,VWS V14.01,2013-03-08 06:22:00,
2013-03-08 00:27:00,22.0,15.3,30.35,SE,134,2.0,5.0,75,0.00,,CLR,0.00,VWS V14.01,2013-03-08 06:27:00,
2013-03-08 00:32:00,21.8,15.1,30.35,SE,133,3.0,4.0,75,0.00,,CLR,0.00,VWS V14.01,2013-03-08 06:32:00,
2013-03-08 00:37:00,21.8,15.4,30.35,SSE,149,3.0,5.0,76,0.00,,CLR,0.00,VWS V14.01,2013-03-08 06:37:00,
2013-03-08 00:42:00,21.9,15.5,30.35,SE,137,4.0,6.0,76,0.00,,CLR,0.00,VWS V14.01,2013-03-08 06:42:00,
2013-03-08 00:47:00,22.0,15.6,30.35,SE,139,2.0,6.0,76,0.00,,CLR,0.00,VWS V14.01,2013-03-08 06:47:00,
2013-03-08 00:52:00,21.9,15.5,30.35,SE,137,3.0,6.0,76,0.00,,CLR,0.00,VWS V14.01,2013-03-08 06:52:00,
2013-03-08 00:57:00,21.8,15.1,30.35,SE,143,2.0,6.0,75,0.00,,CLR,0.00,VWS V14.01,2013-03-08 06:57:00,
2013-03-08 01:02:00,21.7,15.3,30.35,SE,137,1.0,2.0,76,0.00,,CLR,0.00,VWS V14.01,2013-03-08 07:02:00,
2013-03-08 01:07:00,21.5,15.1,30.35,SE,144,1.0,2.0,76,0.00,,CLR,0.00,VWS V14.01,2013-03-08 07:07:00,
2013-03-08 01:12:00,21.5,15.1,30.35,SE,135,1.0,2.0,76,0.00,,CLR,0.00,VWS V14.01,2013-03-08 07:12:00,
2013-03-08 01:17:00,21.5,15.1,30.35,SSE,155,1.0,2.0,76,0.00,,CLR,0.00,VWS V14.01,2013-03-08 07:17:00,
2013-03-08 01:22:00,21.4,15.3,30.35,SSE,149,1.0,2.0,77,0.00,,CLR,0.00,VWS V14.01,2013-03-08 07:22:00,
2013-03-08 01:27:00,21.3,15.2,30.35,SSE,152,1.0,2.0,77,0.00,,CLR,0.00,VWS V14.01,2013-03-08 07:27:00,
2013-03-08 01:32:00,21.2,15.1,30.35,SSE,152,0.0,2.0,77,0.00,,CLR,0.00,VWS V14.01,2013-03-08 07:32:00,
2013-03-08 01:37:00,21.2,15.1,30.35,SE,140,1.0,2.0,77,0.00,,CLR,0.00,VWS V14.01,2013-03-08 07:37:00,
2013-03-08 01:42:00,21.2,15.1,30.36,SSE,162,1.0,2.0,77,0.00,,CLR,0.00,VWS V14.01,2013-03-08 07:42:00,
2013-03-08 01:47:00,21.0,14.9,30.36,SSE,162,1.0,2.0,77,0.00,,CLR,0.00,VWS V14.01,2013-03-08 07:47:00,
2013-03-08 01:52:00,20.9,15.1,30.36,SSE,162,1.0,2.0,78,0.00,,CLR,0.00,VWS V14.01,2013-03-08 07:52:00,
2013-03-08 01:57:00,20.7,14.9,30.36,South,176,1.0,2.0,78,0.00,,CLR,0.00,VWS V14.01,2013-03-08 07:57:00,
2013-03-08 02:02:00,20.6,14.8,30.36,SSE,162,1.0,2.0,78,0.00,,CLR,0.00,VWS V14.01,2013-03-08 08:02:00,
2013-03-08 02:07:00,20.5,15.0,30.36,SSW,205,0.0,2.0,79,0.00,,CLR,0.00,VWS V14.01,2013-03-08 08:07:00,
2013-03-08 02:12:00,20.5,15.0,30.36,South,174,1.0,2.0,79,0.00,,CLR,0.00,VWS V14.01,2013-03-08 08:12:00,
2013-03-08 02:17:00,20.4,14.9,30.36,South,169,1.0,2.0,79,0.00,,CLR,0.00,VWS V14.01,2013-03-08 08:17:00,
2013-03-08 02:22:00,20.3,14.8,30.36,SSE,159,1.0,2.0,79,0.00,,CLR,0.00,VWS V14.01,2013-03-08 08:22:00,
2013-03-08 02:27:00,20.3,15.1,30.36,SE,132,1.0,2.0,80,0.00,,CLR,0.00,VWS V14.01,2013-03-08 08:27:00,
2013-03-08 02:32:00,20.2,14.7,30.36,SE,141,1.0,2.0,79,0.00,,CLR,0.00,VWS V14.01,2013-03-08 08:32:00,
2013-03-08 02:37:00,20.1,14.9,30.36,SSE,152,1.0,2.0,80,0.00,,CLR,0.00,VWS V14.01,2013-03-08 08:37:00,
2013-03-08 02:42:00,20.0,14.8,30.35,SE,138,2.0,2.0,80,0.00,,CLR,0.00,VWS V14.01,2013-03-08 08:42:00,
2013-03-08 02:47:00,20.1,15.2,30.36,SE,145,1.0,3.0,81,0.00,,CLR,0.00,VWS V14.01,2013-03-08 08:47:00,
2013-03-08 02:52:00,20.0,15.1,30.36,SSE,160,1.0,3.0,81,0.00,,CLR,0.00,VWS V14.01,2013-03-08 08:52:00,
2013-03-08 02:57:00,19.8,14.9,30.36,SSE,153,1.0,3.0,81,0.00,,CLR,0.00,VWS V14.01,2013-03-08 08:57:00,
2013-03-08 03:02:00,19.9,15.3,30.35,SE,138,1.0,3.0,82,0.00,,CLR,0.00,VWS V14.01,2013-03-08 09:02:00,
2013-03-08 03:07:00,19.8,15.2,30.35,SE,132,2.0,3.0,82,0.00,,CLR,0.00,VWS V14.01,2013-03-08 09:07:00,
2013-03-08 03:12:00,19.6,15.0,30.34,SE,127,1.0,3.0,82,0.00,,CLR,0.00,VWS V14.01,2013-03-08 09:12:00,
2013-03-08 03:17:00,19.6,15.0,30.34,SE,133,2.0,3.0,82,0.00,,CLR,0.00,VWS V14.01,2013-03-08 09:17:00,
2013-03-08 03:22:00,19.5,14.9,30.35,ESE,119,1.0,3.0,82,0.00,,CLR,0.00,VWS V14.01,2013-03-08 09:22:00,
2013-03-08 03:27:00,19.4,15.1,30.35,ESE,117,1.0,3.0,83,0.00,,CLR,0.00,VWS V14.01,2013-03-08 09:27:00,
2013-03-08 03:32:00,19.3,15.0,30.34,ESE,117,1.0,2.0,83,0.00,,CLR,0.00,VWS V14.01,2013-03-08 09:32:00,
2013-03-08 03:37:00,19.1,14.8,30.34,ESE,117,2.0,2.0,83,0.00,,CLR,0.00,VWS V14.01,2013-03-08 09:37:00,
2013-03-08 03:42:00,19.1,15.1,30.34,SE,129,1.0,2.0,84,0.00,,CLR,0.00,VWS V14.01,2013-03-08 09:42:00,
2013-03-08 03:47:00,19.0,15.0,30.34,SE,130,0.0,2.0,84,0.00,,CLR,0.00,VWS V14.01,2013-03-08 09:47:00,
2013-03-08 03:52:00,19.1,15.1,30.34,SE,133,1.0,2.0,84,0.00,,CLR,0.00,VWS V14.01,2013-03-08 09:52:00,
2013-03-08 03:57:00,19.2,15.2,30.34,SE,135,2.0,2.0,84,0.00,,CLR,0.00,VWS V14.01,2013-03-08 09:57:00,
2013-03-08 04:02:00,19.3,15.3,30.34,SE,130,2.0,3.0,84,0.00,,CLR,0.00,VWS V14.01,2013-03-08 10:02:00,
2013-03-08 04:07:00,19.2,15.2,30.34,SE,135,2.0,3.0,84,0.00,,CLR,0.00,VWS V14.01,2013-03-08 10:07:00,
2013-03-08 04:12:00,19.2,15.2,30.34,SSE,148,3.0,3.0,84,0.00,,CLR,0.00,VWS V14.01,2013-03-08 10:12:00,
2013-03-08 04:17:00,19.2,15.2,30.34,SE,138,2.0,3.0,84,0.00,,CLR,0.00,VWS V14.01,2013-03-08 10:17:00,
2013-03-08 04:22:00,19.1,15.3,30.34,SE,133,1.0,3.0,85,0.00,,CLR,0.00,VWS V14.01,2013-03-08 10:22:00,
2013-03-08 04:27:00,19.0,15.2,30.35,SE,132,2.0,3.0,85,0.00,,CLR,0.00,VWS V14.01,2013-03-08 10:27:00,
2013-03-08 04:32:00,18.9,15.1,30.34,SE,139,2.0,2.0,85,0.00,,CLR,0.00,VWS V14.01,2013-03-08 10:32:00,
2013-03-08 04:37:00,18.9,15.1,30.34,SE,137,2.0,3.0,85,0.00,,CLR,0.00,VWS V14.01,2013-03-08 10:37:00,
2013-03-08 04:42:00,18.7,14.9,30.34,SE,133,2.0,3.0,85,0.00,,CLR,0.00,VWS V14.01,2013-03-08 10:42:00,
2013-03-08 04:47:00,18.6,14.9,30.34,SE,136,2.0,3.0,85,0.00,,CLR,0.00,VWS V14.01,2013-03-08 10:47:00,
2013-03-08 04:52:00,18.5,15.0,30.34,SE,133,2.0,3.0,86,0.00,,CLR,0.00,VWS V14.01,2013-03-08 10:52:00,
2013-03-08 04:57:00,18.4,14.9,30.34,SE,133,1.0,3.0,86,0.00,,CLR,0.00,VWS V14.01,2013-03-08 10:57:00,
2013-03-08 05:02:00,18.3,14.8,30.34,SE,130,1.0,3.0,86,0.00,,CLR,0.00,VWS V14.01,2013-03-08 11:02:00,
2013-03-08 05:07:00,18.2,14.7,30.34,SE,130,2.0,3.0,86,0.00,,CLR,0.00,VWS V14.01,2013-03-08 11:07:00,
2013-03-08 05:12:00,18.2,15.0,30.34,SSE,155,2.0,3.0,87,0.00,,CLR,0.00,VWS V14.01,2013-03-08 11:12:00,
2013-03-08 05:17:00,18.2,15.0,30.34,SE,141,1.0,3.0,87,0.00,,CLR,0.00,VWS V14.01,2013-03-08 11:17:00,
2013-03-08 05:22:00,18.1,14.9,30.34,SE,134,1.0,3.0,87,0.00,,CLR,0.00,VWS V14.01,2013-03-08 11:22:00,
2013-03-08 05:27:00,18.1,14.9,30.34,SSE,149,1.0,3.0,87,0.00,,CLR,0.00,VWS V14.01,2013-03-08 11:27:00,
2013-03-08 05:32:00,18.0,14.8,30.34,SSE,148,1.0,2.0,87,0.00,,CLR,0.00,VWS V14.01,2013-03-08 11:32:00,
2013-03-08 05:37:00,17.9,14.7,30.34,SSE,154,0.0,2.0,87,0.00,,CLR,0.00,VWS V14.01,2013-03-08 11:37:00,
2013-03-08 05:42:00,17.7,14.8,30.35,SSE,158,0.0,2.0,88,0.00,,CLR,0.00,VWS V14.01,2013-03-08 11:42:00,
2013-03-08 05:47:00,17.6,14.7,30.35,SSE,152,1.0,2.0,88,0.00,,CLR,0.00,VWS V14.01,2013-03-08 11:47:00,
2013-03-08 05:52:00,17.6,14.7,30.34,SE,142,1.0,2.0,88,0.00,,CLR,0.00,VWS V14.01,2013-03-08 11:52:00,
2013-03-08 05:57:00,17.6,14.9,30.34,SE,139,1.0,2.0,89,0.00,,CLR,0.00,VWS V14.01,2013-03-08 11:57:00,
2013-03-08 06:02:00,17.5,14.8,30.34,SE,145,1.0,2.0,89,0.00,,CLR,0.00,VWS V14.01,2013-03-08 12:02:00,
2013-03-08 06:07:00,17.5,14.8,30.34,SE,137,2.0,3.0,89,0.00,,CLR,0.00,VWS V14.01,2013-03-08 12:07:00,
2013-03-08 06:12:00,17.5,14.8,30.34,SSE,149,2.0,3.0,89,0.00,,CLR,0.00,VWS V14.01,2013-03-08 12:12:00,
2013-03-08 06:17:00,17.5,14.8,30.34,SSE,148,1.0,3.0,89,0.00,,CLR,0.00,VWS V14.01,2013-03-08 12:17:00,
2013-03-08 06:22:00,17.6,15.2,30.34,SE,138,1.0,3.0,90,0.00,,CLR,0.00,VWS V14.01,2013-03-08 12:22:00,
2013-03-08 06:27:00,17.6,15.2,30.34,SE,138,2.0,3.0,90,0.00,,CLR,0.00,VWS V14.01,2013-03-08 12:27:00,
2013-03-08 06:32:00,17.6,15.2,30.34,SE,139,2.0,3.0,90,0.00,,CLR,0.00,VWS V14.01,2013-03-08 12:32:00,
2013-03-08 06:37:00,17.7,15.3,30.34,SE,136,1.0,3.0,90,0.00,,CLR,0.00,VWS V14.01,2013-03-08 12:37:00,
2013-03-08 06:42:00,17.6,15.2,30.34,SSE,152,1.0,3.0,90,0.00,,CLR,0.00,VWS V14.01,2013-03-08 12:42:00,
2013-03-08 06:47:00,17.6,15.4,30.34,SE,138,1.0,3.0,91,0.00,,CLR,0.00,VWS V14.01,2013-03-08 12:47:00,
2013-03-08 06:52:00,17.7,15.5,30.34,SE,138,0.0,3.0,91,0.00,,CLR,0.00,VWS V14.01,2013-03-08 12:52:00,
2013-03-08 06:57:00,17.7,15.5,30.34,SE,137,1.0,3.0,91,0.00,,CLR,0.00,VWS V14.01,2013-03-08 12:57:00,
2013-03-08 07:02:00,17.8,15.6,30.34,SE,132,1.0,2.0,91,0.00,,CLR,0.00,VWS V14.01,2013-03-08 13:02:00,
2013-03-08 07:07:00,17.9,15.7,30.34,SE,142,2.0,2.0,91,0.00,,CLR,0.00,VWS V14.01,2013-03-08 13:07:00,
2013-03-08 07:12:00,17.9,15.7,30.34,SE,141,1.0,3.0,91,0.00,,CLR,0.00,VWS V14.01,2013-03-08 13:12:00,
2013-03-08 07:17:00,18.1,15.9,30.34,SE,132,1.0,3.0,91,0.00,,CLR,0.00,VWS V14.01,2013-03-08 13:17:00,
2013-03-08 07:22:00,18.3,16.1,30.34,SE,130,1.0,3.0,91,0.00,,CLR,0.00,VWS V14.01,2013-03-08 13:22:00,
2013-03-08 07:27:00,18.5,16.3,30.34,SE,144,1.0,3.0,91,0.00,,CLR,0.00,VWS V14.01,2013-03-08 13:27:00,
2013-03-08 07:32:00,18.7,16.5,30.33,SE,134,3.0,3.0,91,0.00,,CLR,0.00,VWS V14.01,2013-03-08 13:32:00,
2013-03-08 07:37:00,19.0,16.8,30.33,SE,138,2.0,4.0,91,0.00,,CLR,0.00,VWS V14.01,2013-03-08 13:37:00,
2013-03-08 07:42:00,19.3,17.1,30.33,SE,136,1.0,4.0,91,0.00,,CLR,0.00,VWS V14.01,2013-03-08 13:42:00,
2013-03-08 07:47:00,19.6,17.4,30.33,SSE,149,2.0,4.0,91,0.00,,CLR,0.00,VWS V14.01,2013-03-08 13:47:00,
2013-03-08 07:52:00,19.9,17.5,30.33,SE,145,1.0,4.0,90,0.00,,CLR,0.00,VWS V14.01,2013-03-08 13:52:00,
2013-03-08 07:57:00,20.2,17.7,30.33,SE,143,6.0,6.0,90,0.00,,CLR,0.00,VWS V14.01,2013-03-08 13:57:00,
2013-03-08 08:02:00,20.5,18.0,30.33,SE,144,6.0,6.0,90,0.00,,CLR,0.00,VWS V14.01,2013-03-08 14:02:00,
2013-03-08 08:07:00,20.9,18.4,30.33,SSW,198,1.0,6.0,90,0.00,,CLR,0.00,VWS V14.01,2013-03-08 14:07:00,
2013-03-08 08:12:00,21.2,18.5,30.33,SE,141,4.0,7.0,89,0.00,,CLR,0.00,VWS V14.01,2013-03-08 14:12:00,
2013-03-08 08:17:00,21.6,18.9,30.33,SE,132,0.0,7.0,89,0.00,,CLR,0.00,VWS V14.01,2013-03-08 14:17:00,
2013-03-08 08:22:00,22.0,19.0,30.33,SE,141,2.0,7.0,88,0.00,,CLR,0.00,VWS V14.01,2013-03-08 14:22:00,
2013-03-08 08:27:00,22.5,19.5,30.33,SSE,159,3.0,7.0,88,0.00,,CLR,0.00,VWS V14.01,2013-03-08 14:27:00,
2013-03-08 08:32:00,22.7,19.4,30.33,SE,135,1.0,5.0,87,0.00,,CLR,0.00,VWS V14.01,2013-03-08 14:32:00,
2013-03-08 08:37:00,23.0,19.7,30.33,SSE,163,2.0,5.0,87,0.00,,CLR,0.00,VWS V14.01,2013-03-08 14:37:00,
2013-03-08 08:42:00,23.4,20.1,30.33,SE,143,3.0,6.0,87,0.00,,CLR,0.00,VWS V14.01,2013-03-08 14:42:00,
2013-03-08 08:47:00,23.8,20.2,30.33,SSE,156,6.0,6.0,86,0.00,,CLR,0.00,VWS V14.01,2013-03-08 14:47:00,
2013-03-08 08:52:00,24.2,20.6,30.33,South,179,4.0,6.0,86,0.00,,CLR,0.00,VWS V14.01,2013-03-08 14:52:00,
2013-03-08 08:57:00,24.6,20.7,30.33,SSE,162,5.0,6.0,85,0.00,,CLR,0.00,VWS V14.01,2013-03-08 14:57:00,
2013-03-08 09:02:00,24.9,21.0,30.33,SE,142,4.0,6.0,85,0.00,,CLR,0.00,VWS V14.01,2013-03-08 15:02:00,
2013-03-08 09:07:00,25.1,21.0,30.32,SSW,195,2.0,7.0,84,0.00,,CLR,0.00,VWS V14.01,2013-03-08 15:07:00,
2013-03-08 09:12:00,25.5,21.4,30.33,SE,136,3.0,7.0,84,0.00,,CLR,0.00,VWS V14.01,2013-03-08 15:12:00,
2013-03-08 09:17:00,25.8,21.6,30.33,SE,142,3.0,8.0,84,0.00,,CLR,0.00,VWS V14.01,2013-03-08 15:17:00,
2013-03-08 09:22:00,26.1,21.6,30.33,South,170,3.0,8.0,83,0.00,,CLR,0.00,VWS V14.01,2013-03-08 15:22:00,
2013-03-08 09:27:00,26.5,22.0,30.33,South,170,3.0,8.0,83,0.00,,CLR,0.00,VWS V14.01,2013-03-08 15:27:00,
2013-03-08 09:32:00,27.0,22.2,30.33,SSE,162,5.0,7.0,82,0.00,,CLR,0.00,VWS V14.01,2013-03-08 15:32:00,
2013-03-08 09:37:00,27.2,22.4,30.34,SE,136,2.0,7.0,82,0.00,,CLR,0.00,VWS V14.01,2013-03-08 15:37:00,
2013-03-08 09:42:00,27.6,22.5,30.33,SE,129,3.0,7.0,81,0.00,,CLR,0.00,VWS V14.01,2013-03-08 15:42:00,
2013-03-08 09:47:00,28.0,22.9,30.33,South,170,4.0,7.0,81,0.00,,CLR,0.00,VWS V14.01,2013-03-08 15:47:00,
2013-03-08 09:51:00,28.0,22.9,30.33,South,190,3.0,7.0,81,0.00,,CLR,0.00,VWS V14.01,2013-03-08 15:51:00,
2013-03-08 09:56:00,28.6,23.2,30.33,SSE,155,1.0,7.0,80,0.00,,CLR,0.00,VWS V14.01,2013-03-08 15:56:00,
2013-03-08 10:01:00,28.9,23.2,30.33,SW,228,3.0,5.0,79,0.00,,CLR,0.00,VWS V14.01,2013-03-08 16:01:00,
2013-03-08 10:06:00,29.0,23.3,30.33,SSW,213,4.0,6.0,79,0.00,,CLR,0.00,VWS V14.01,2013-03-08 16:06:00,
2013-03-08 10:11:00,29.2,23.8,30.33,SE,139,2.0,6.0,80,0.00,,CLR,0.00,VWS V14.01,2013-03-08 16:11:00,
2013-03-08 10:16:00,29.5,23.8,30.33,SSW,198,3.0,6.0,79,0.00,,CLR,0.00,VWS V14.01,2013-03-08 16:16:00,
2013-03-08 10:21:00,30.0,24.3,30.32,SW,221,3.0,8.0,79,0.00,,CLR,0.00,VWS V14.01,2013-03-08 16:21:00,
2013-03-08 10:26:00,30.0,24.0,30.32,SSW,212,4.0,8.0,78,0.00,,CLR,0.00,VWS V14.01,2013-03-08 16:26:00,
2013-03-08 10:31:00,30.2,23.9,30.33,SW,218,4.0,8.0,77,0.00,,CLR,0.00,VWS V14.01,2013-03-08 16:31:00,
2013-03-08 10:36:00,30.4,24.4,30.32,SSW,193,4.0,8.0,78,0.00,,CLR,0.00,VWS V14.01,2013-03-08 16:36:00,
2013-03-08 10:41:00,30.9,24.5,30.32,South,176,4.0,8.0,77,0.00,,CLR,0.00,VWS V14.01,2013-03-08 16:41:00,
2013-03-08 10:46:00,31.4,24.7,30.32,SSE,162,3.0,8.0,76,0.00,,CLR,0.00,VWS V14.01,2013-03-08 16:46:00,
2013-03-08 10:51:00,31.6,24.6,30.31,SSW,210,3.0,8.0,75,0.00,,CLR,0.00,VWS V14.01,2013-03-08 16:51:00,
2013-03-08 10:56:00,31.9,25.2,30.31,South,175,4.0,8.0,76,0.00,,CLR,0.00,VWS V14.01,2013-03-08 16:56:00,
2013-03-08 11:01:00,32.1,25.1,30.31,SE,129,4.0,7.0,75,0.00,,CLR,0.00,VWS V14.01,2013-03-08 17:01:00,
2013-03-08 11:06:00,32.1,25.1,30.31,SSE,154,4.0,7.0,75,0.00,,CLR,0.00,VWS V14.01,2013-03-08 17:06:00,
2013-03-08 11:11:00,32.3,25.3,30.31,SSE,148,4.0,7.0,75,0.00,,CLR,0.00,VWS V14.01,2013-03-08 17:11:00,
2013-03-08 11:16:00,32.7,25.3,30.31,SE,138,4.0,7.0,74,0.00,,CLR,0.00,VWS V14.01,2013-03-08 17:16:00,
2013-03-08 11:21:00,32.8,25.4,30.31,SW,218,4.0,7.0,74,0.00,,CLR,0.00,VWS V14.01,2013-03-08 17:21:00,
2013-03-08 11:26:00,33.3,25.9,30.31,SE,133,2.0,7.0,74,0.00,,CLR,0.00,VWS V14.01,2013-03-08 17:26:00,
2013-03-08 11:31:00,34.0,25.9,30.32,SW,221,4.0,5.0,72,0.00,,CLR,0.00,VWS V14.01,2013-03-08 17:31:00,
2013-03-08 11:36:00,33.8,25.7,30.32,SE,136,2.0,5.0,72,0.00,,CLR,0.00,VWS V14.01,2013-03-08 17:36:00,
2013-03-08 11:41:00,34.5,26.4,30.31,SSW,208,2.0,5.0,72,0.00,,CLR,0.00,VWS V14.01,2013-03-08 17:41:00,
2013-03-08 11:46:00,34.7,26.3,30.31,SSW,212,1.0,5.0,71,0.00,,CLR,0.00,VWS V14.01,2013-03-08 17:46:00,
2013-03-08 11:51:00,35.1,26.7,30.31,SSW,193,2.0,5.0,71,0.00,,CLR,0.00,VWS V14.01,2013-03-08 17:51:00,
2013-03-08 11:56:00,35.2,26.1,30.31,ESE,123,2.0,5.0,69,0.01,,CLR,0.01,VWS V14.01,2013-03-08 17:56:00,
2013-03-08 12:01:00,35.0,26.6,30.30,SSE,161,3.0,5.0,71,0.01,,CLR,0.01,VWS V14.01,2013-03-08 18:01:00,
2013-03-08 12:06:00,35.3,26.5,30.30,ESE,113,4.0,5.0,70,0.01,,CLR,0.01,VWS V14.01,2013-03-08 18:06:00,
2013-03-08 12:11:00,34.7,25.9,30.30,ESE,116,1.0,8.0,70,0.01,,CLR,0.01,VWS V14.01,2013-03-08 18:11:00,
2013-03-08 12:16:00,35.2,26.8,30.30,SE,139,3.0,8.0,71,0.01,,CLR,0.01,VWS V14.01,2013-03-08 18:16:00,
2013-03-08 12:21:00,35.5,26.4,30.29,ESE,122,2.0,8.0,69,0.02,,CLR,0.02,VWS V14.01,2013-03-08 18:21:00,
2013-03-08 12:26:00,35.2,26.8,30.29,SE,128,1.0,8.0,71,0.02,,CLR,0.02,VWS V14.01,2013-03-08 18:26:00,
2013-03-08 12:31:00,35.5,26.7,30.29,SE,146,3.0,5.0,70,0.02,,CLR,0.02,VWS V14.01,2013-03-08 18:31:00,
2013-03-08 12:36:00,35.3,27.2,30.29,SE,142,3.0,6.0,72,0.02,,CLR,0.02,VWS V14.01,2013-03-08 18:36:00,
2013-03-08 12:41:00,35.8,27.0,30.28,ESE,106,3.0,7.0,70,0.02,,CLR,0.02,VWS V14.01,2013-03-08 18:41:00,
2013-03-08 12:46:00,35.8,27.3,30.29,SE,134,2.0,7.0,71,0.02,,CLR,0.02,VWS V14.01,2013-03-08 18:46:00,
2013-03-08 12:51:00,36.1,27.6,30.28,South,191,2.0,7.0,71,0.02,,CLR,0.02,VWS V14.01,2013-03-08 18:51:00,
2013-03-08 12:56:00,36.3,27.5,30.28,SSE,148,3.0,7.0,70,0.03,,CLR,0.03,VWS V14.01,2013-03-08 18:56:00,
2013-03-08 13:01:00,36.7,27.9,30.27,SE,146,4.0,7.0,70,0.02,,CLR,0.03,VWS V14.01,2013-03-08 19:01:00,
2013-03-08 13:06:00,36.7,27.5,30.28,ESE,117,4.0,7.0,69,0.02,,CLR,0.03,VWS V14.01,2013-03-08 19:06:00,
2013-03-08 13:11:00,36.6,27.8,30.27,SSE,162,3.0,8.0,70,0.03,,CLR,0.04,VWS V14.01,2013-03-08 19:11:00,
2013-03-08 13:16:00,36.5,27.7,30.28,SSE,162,4.0,8.0,70,0.03,,CLR,0.04,VWS V14.01,2013-03-08 19:16:00,
2013-03-08 13:21:00,36.7,27.9,30.28,SE,132,2.0,8.0,70,0.03,,CLR,0.04,VWS V14.01,2013-03-08 19:21:00,
2013-03-08 13:26:00,37.0,27.8,30.27,SSE,166,5.0,8.0,69,0.04,,CLR,0.05,VWS V14.01,2013-03-08 19:26:00,
2013-03-08 13:31:00,36.8,27.6,30.26,SE,145,3.0,8.0,69,0.03,,SCT120,0.05,VWS V14.01,2013-03-08 19:31:00,
2013-03-08 13:36:00,36.7,27.9,30.26,SE,131,6.0,8.0,70,0.03,,SCT120,0.05,VWS V14.01,2013-03-08 19:36:00,
2013-03-08 13:41:00,36.4,27.6,30.26,SE,143,4.0,9.0,70,0.03,,SCT120,0.05,VWS V14.01,2013-03-08 19:41:00,
2013-03-08 13:46:00,36.8,28.3,30.26,South,179,4.0,9.0,71,0.03,,SCT120,0.05,VWS V14.01,2013-03-08 19:46:00,
2013-03-08 13:51:00,37.4,28.2,30.26,SSE,163,1.0,9.0,69,0.04,,CLR,0.06,VWS V14.01,2013-03-08 19:51:00,
2013-03-08 13:56:00,37.9,28.6,30.26,SE,139,4.0,9.0,69,0.04,,SCT120,0.06,VWS V14.01,2013-03-08 19:56:00,
2013-03-08 14:01:00,37.5,27.9,30.25,SE,140,5.0,8.0,68,0.03,,CLR,0.06,VWS V14.01,2013-03-08 20:01:00,
2013-03-08 14:06:00,37.8,28.6,30.25,SSE,153,3.0,8.0,69,0.03,,CLR,0.06,VWS V14.01,2013-03-08 20:06:00,
2013-03-08 14:11:00,38.0,28.4,30.25,SSE,163,3.0,8.0,68,0.03,,CLR,0.06,VWS V14.01,2013-03-08 20:11:00,
2013-03-08 14:16:00,38.0,28.4,30.25,SE,132,4.0,8.0,68,0.04,,CLR,0.07,VWS V14.01,2013-03-08 20:16:00,
2013-03-08 14:21:00,37.9,28.6,30.25,ESE,120,3.0,8.0,69,0.04,,CLR,0.07,VWS V14.01,2013-03-08 20:21:00,
2013-03-08 14:26:00,37.4,28.2,30.25,ESE,118,5.0,8.0,69,0.04,,CLR,0.07,VWS V14.01,2013-03-08 20:26:00,
2013-03-08 14:31:00,37.1,28.2,30.25,ESE,120,2.0,6.0,70,0.02,,CLR,0.07,VWS V14.01,2013-03-08 20:31:00,
2013-03-08 14:36:00,37.4,28.2,30.25,ESE,118,2.0,6.0,69,0.02,,CLR,0.07,VWS V14.01,2013-03-08 20:36:00,
2013-03-08 14:41:00,38.0,29.1,30.25,ESE,115,1.0,6.0,70,0.02,,CLR,0.07,VWS V14.01,2013-03-08 20:41:00,
2013-03-08 14:46:00,38.4,28.8,30.25,SSE,158,4.0,7.0,68,0.02,,CLR,0.07,VWS V14.01,2013-03-08 20:46:00,
2013-03-08 14:51:00,38.8,29.2,30.25,SE,125,1.0,7.0,68,0.03,,CLR,0.08,VWS V14.01,2013-03-08 20:51:00,
2013-03-08 14:56:00,38.8,28.8,30.25,SE,127,3.0,7.0,67,0.03,,CLR,0.08,VWS V14.01,2013-03-08 20:56:00,
2013-03-08 15:01:00,38.4,28.4,30.25,ESE,117,4.0,6.0,67,0.02,,CLR,0.08,VWS V14.01,2013-03-08 21:01:00,
2013-03-08 15:06:00,38.3,29.0,30.24,SSW,197,5.0,7.0,69,0.02,,CLR,0.08,VWS V14.01,2013-03-08 21:06:00,
2013-03-08 15:11:00,38.5,28.9,30.25,SW,224,2.0,7.0,68,0.02,,CLR,0.08,VWS V14.01,2013-03-08 21:11:00,
2013-03-08 15:16:00,38.5,28.5,30.24,ESE,115,4.0,7.0,67,0.02,,CLR,0.08,VWS V14.01,2013-03-08 21:16:00,
2013-03-08 15:21:00,38.1,28.8,30.24,SE,139,3.0,7.0,69,0.02,,CLR,0.08,VWS V14.01,2013-03-08 21:21:00,
2013-03-08 15:26:00,38.2,28.9,30.24,ESE,113,4.0,7.0,69,0.02,,CLR,0.08,VWS V14.01,2013-03-08 21:26:00,
2013-03-08 15:31:00,38.1,28.8,30.24,ESE,120,4.0,6.0,69,0.01,,CLR,0.08,VWS V14.01,2013-03-08 21:31:00,
2013-03-08 15:36:00,37.9,28.6,30.24,ESE,122,2.0,7.0,69,0.01,,CLR,0.08,VWS V14.01,2013-03-08 21:36:00,
2013-03-08 15:41:00,37.9,28.6,30.24,ESE,110,4.0,7.0,69,0.01,,CLR,0.08,VWS V14.01,2013-03-08 21:41:00,
2013-03-08 15:46:00,37.7,28.8,30.25,ESE,121,4.0,7.0,70,0.01,,CLR,0.08,VWS V14.01,2013-03-08 21:46:00,
2013-03-08 15:51:00,37.8,28.9,30.24,ESE,115,3.0,7.0,70,0.01,,CLR,0.08,VWS V14.01,2013-03-08 21:51:00,
2013-03-08 15:56:00,37.9,29.0,30.24,ESE,113,5.0,7.0,70,0.02,,CLR,0.09,VWS V14.01,2013-03-08 21:56:00,
2013-03-08 16:01:00,37.9,29.0,30.24,ESE,113,4.0,8.0,70,0.01,,CLR,0.09,VWS V14.01,2013-03-08 22:01:00,
2013-03-08 16:06:00,37.8,28.9,30.24,SE,139,5.0,9.0,70,0.01,,CLR,0.09,VWS V14.01,2013-03-08 22:06:00,
2013-03-08 16:11:00,37.7,28.8,30.24,ESE,122,2.0,9.0,70,0.01,,CLR,0.09,VWS V14.01,2013-03-08 22:11:00,
2013-03-08 16:16:00,37.5,28.6,30.24,ESE,120,5.0,9.0,70,0.01,,CLR,0.09,VWS V14.01,2013-03-08 22:16:00,
2013-03-08 16:21:00,37.2,28.7,30.24,ESE,115,4.0,9.0,71,0.01,,CLR,0.09,VWS V14.01,2013-03-08 22:21:00,
2013-03-08 16:26:00,37.1,28.9,30.24,SE,136,5.0,9.0,72,0.01,,CLR,0.09,VWS V14.01,2013-03-08 22:26:00,
2013-03-08 16:31:00,37.2,29.0,30.24,SE,137,4.0,6.0,72,0.01,,CLR,0.09,VWS V14.01,2013-03-08 22:31:00,
2013-03-08 16:36:00,37.3,28.8,30.24,ESE,121,4.0,6.0,71,0.01,,CLR,0.09,VWS V14.01,2013-03-08 22:36:00,
2013-03-08 16:41:00,37.1,28.9,30.24,ESE,116,7.0,7.0,72,0.01,,CLR,0.09,VWS V14.01,2013-03-08 22:41:00,
2013-03-08 16:46:00,37.1,28.9,30.24,ESE,113,2.0,7.0,72,0.01,,CLR,0.09,VWS V14.01,2013-03-08 22:46:00,
2013-03-08 16:51:00,36.9,28.7,30.24,ESE,117,4.0,7.0,72,0.01,,CLR,0.09,VWS V14.01,2013-03-08 22:51:00,
2013-03-08 16:56:00,36.9,29.1,30.24,ESE,107,3.0,7.0,73,0.01,,CLR,0.09,VWS V14.01,2013-03-08 22:56:00,
2013-03-08 17:01:00,37.0,29.2,30.24,ESE,110,3.0,4.0,73,0.00,,CLR,0.09,VWS V14.01,2013-03-08 23:01:00,
2013-03-08 17:06:00,36.9,29.1,30.24,SE,134,3.0,4.0,73,0.00,,CLR,0.09,VWS V14.01,2013-03-08 23:06:00,
2013-03-08 17:11:00,36.8,29.0,30.24,ESE,108,4.0,5.0,73,0.00,,CLR,0.09,VWS V14.01,2013-03-08 23:11:00,
2013-03-08 17:16:00,36.8,29.0,30.23,ESE,105,4.0,5.0,73,0.00,,CLR,0.09,VWS V14.01,2013-03-08 23:16:00,
2013-03-08 17:21:00,36.8,29.0,30.24,SE,140,3.0,5.0,73,0.00,,CLR,0.09,VWS V14.01,2013-03-08 23:21:00,
2013-03-08 17:26:00,36.8,29.0,30.23,ESE,117,4.0,5.0,73,0.00,,CLR,0.09,VWS V14.01,2013-03-08 23:26:00,
2013-03-08 17:31:00,36.7,29.2,30.23,ESE,120,3.0,5.0,74,0.00,,CLR,0.09,VWS V14.01,2013-03-08 23:31:00,
2013-03-08 17:36:00,36.7,29.2,30.23,ESE,120,3.0,5.0,74,0.00,,CLR,0.09,VWS V14.01,2013-03-08 23:36:00,
2013-03-08 17:41:00,36.5,29.0,30.23,SE,127,3.0,5.0,74,0.00,,CLR,0.09,VWS V14.01,2013-03-08 23:41:00,
2013-03-08 17:46:00,36.4,29.2,30.23,ESE,117,2.0,5.0,75,0.00,,CLR,0.09,VWS V14.01,2013-03-08 23:46:00,
2013-03-08 17:51:00,36.3,29.1,30.23,SE,129,3.0,5.0,75,0.00,,CLR,0.09,VWS V14.01,2013-03-08 23:51:00,
2013-03-08 17:56:00,36.3,29.1,30.23,ESE,120,1.0,5.0,75,0.00,,CLR,0.09,VWS V14.01,2013-03-08 23:56:00,
2013-03-08 18:01:00,36.2,29.0,30.22,ESE,115,3.0,3.0,75,0.00,,CLR,0.09,VWS V14.01,2013-03-09 00:01:00,
2013-03-08 18:06:00,36.1,29.0,30.22,ESE,109,2.0,3.0,75,0.00,,CLR,0.09,VWS V14.01,2013-03-09 00:06:00,
2013-03-08 18:11:00,35.9,29.1,30.22,ESE,105,2.0,3.0,76,0.00,,CLR,0.09,VWS V14.01,2013-03-09 00:11:00,
2013-03-08 18:16:00,35.7,28.9,30.22,ESE,105,2.0,3.0,76,0.00,,CLR,0.09,VWS V14.01,2013-03-09 00:16:00,
2013-03-08 18:21:00,35.4,28.9,30.22,ESE,105,1.0,3.0,77,0.00,,CLR,0.09,VWS V14.01,2013-03-09 00:21:00,
2013-03-08 18:26:00,35.3,28.8,30.22,ESE,105,2.0,3.0,77,0.00,,CLR,0.09,VWS V14.01,2013-03-09 00:26:00,
2013-03-08 18:31:00,35.2,28.7,30.22,ESE,108,3.0,4.0,77,0.00,,CLR,0.09,VWS V14.01,2013-03-09 00:31:00,
2013-03-08 18:36:00,35.2,29.0,30.22,ESE,105,1.0,4.0,78,0.00,,CLR,0.09,VWS V14.01,2013-03-09 00:36:00,
2013-03-08 18:41:00,35.1,28.9,30.21,ESE,104,2.0,4.0,78,0.00,,CLR,0.09,VWS V14.01,2013-03-09 00:41:00,
2013-03-08 18:46:00,34.9,28.8,30.22,ESE,108,1.0,4.0,78,0.00,,CLR,0.09,VWS V14.01,2013-03-09 00:46:00,
2013-03-08 18:51:00,34.7,28.9,30.22,ESE,120,1.0,4.0,79,0.00,,CLR,0.09,VWS V14.01,2013-03-09 00:51:00,
2013-03-08 18:56:00,34.7,28.9,30.22,ESE,114,2.0,4.0,79,0.00,,CLR,0.09,VWS V14.01,2013-03-09 00:56:00,
2013-03-08 19:01:00,34.7,28.9,30.21,ESE,103,2.0,2.0,79,0.00,,CLR,0.09,VWS V14.01,2013-03-09 01:01:00,
2013-03-08 19:06:00,34.4,28.6,30.21,East,97,2.0,3.0,79,0.00,,CLR,0.09,VWS V14.01,2013-03-09 01:06:00,
2013-03-08 19:11:00,34.4,28.9,30.21,ESE,102,2.0,3.0,80,0.00,,CLR,0.09,VWS V14.01,2013-03-09 01:11:00,
2013-03-08 19:16:00,34.4,28.9,30.20,ESE,117,2.0,3.0,80,0.00,,CLR,0.09,VWS V14.01,2013-03-09 01:16:00,
2013-03-08 19:21:00,34.4,28.9,30.20,ESE,113,3.0,4.0,80,0.00,,CLR,0.09,VWS V14.01,2013-03-09 01:21:00,
2013-03-08 19:26:00,34.1,28.6,30.20,East,91,1.0,4.0,80,0.00,,CLR,0.09,VWS V14.01,2013-03-09 01:26:00,
2013-03-08 19:31:00,34.0,28.8,30.19,ESE,105,2.0,4.0,81,0.00,,CLR,0.09,VWS V14.01,2013-03-09 01:31:00,
2013-03-08 19:36:00,33.9,28.7,30.19,ESE,108,2.0,4.0,81,0.00,,CLR,0.09,VWS V14.01,2013-03-09 01:36:00,
2013-03-08 19:41:00,33.6,28.4,30.19,ESE,110,3.0,4.0,81,0.00,,CLR,0.09,VWS V14.01,2013-03-09 01:41:00,
2013-03-08 19:46:00,33.6,28.7,30.19,ESE,108,2.0,4.0,82,0.00,,CLR,0.09,VWS V14.01,2013-03-09 01:46:00,
2013-03-08 19:51:00,33.5,28.3,30.19,ESE,105,2.0,4.0,81,0.00,,CLR,0.09,VWS V14.01,2013-03-09 01:51:00,
2013-03-08 19:56:00,33.5,28.6,30.19,East,90,2.0,4.0,82,0.00,,CLR,0.09,VWS V14.01,2013-03-09 01:56:00,
2013-03-08 20:01:00,33.6,28.7,30.19,ENE,78,3.0,4.0,82,0.00,,CLR,0.09,VWS V14.01,2013-03-09 02:01:00,
2013-03-08 20:06:00,33.8,28.9,30.18,East,101,4.0,5.0,82,0.00,,CLR,0.09,VWS V14.01,2013-03-09 02:06:00,
2013-03-08 20:11:00,33.9,28.7,30.18,East,86,3.0,5.0,81,0.00,,CLR,0.09,VWS V14.01,2013-03-09 02:11:00,
2013-03-08 20:16:00,33.8,28.6,30.18,East,89,3.0,6.0,81,0.00,,CLR,0.09,VWS V14.01,2013-03-09 02:16:00,
2013-03-08 20:21:00,33.7,28.8,30.18,East,99,2.0,6.0,82,0.00,,CLR,0.09,VWS V14.01,2013-03-09 02:21:00,
2013-03-08 20:26:00,33.6,28.7,30.18,East,98,1.0,6.0,82,0.00,,CLR,0.09,VWS V14.01,2013-03-09 02:26:00,
2013-03-08 20:31:00,33.5,28.6,30.18,East,96,2.0,3.0,82,0.00,,CLR,0.09,VWS V14.01,2013-03-09 02:31:00,
2013-03-08 20:36:00,33.4,28.5,30.17,East,94,3.0,4.0,82,0.00,,CLR,0.09,VWS V14.01,2013-03-09 02:36:00,
2013-03-08 20:41:00,33.4,28.5,30.17,East,101,2.0,4.0,82,0.00,,CLR,0.09,VWS V14.01,2013-03-09 02:41:00,
2013-03-08 20:46:00,33.3,28.4,30.17,East,82,2.0,4.0,82,0.00,,CLR,0.09,VWS V14.01,2013-03-09 02:46:00,
2013-03-08 20:51:00,33.3,28.4,30.17,East,85,2.0,4.0,82,0.00,,SCT090,0.09,VWS V14.01,2013-03-09 02:51:00,
2013-03-08 20:56:00,33.3,28.4,30.17,East,90,2.0,4.0,82,0.00,,SCT110,0.09,VWS V14.01,2013-03-09 02:56:00,
2013-03-08 21:01:00,33.1,28.2,30.16,East,96,2.0,3.0,82,0.00,,SCT090,0.09,VWS V14.01,2013-03-09 03:01:00,
2013-03-08 21:06:00,32.9,28.3,30.16,East,101,2.0,3.0,83,0.00,,SCT090,0.09,VWS V14.01,2013-03-09 03:06:00,
2013-03-08 21:11:00,32.7,28.1,30.16,East,99,2.0,3.0,83,0.00,,SCT090,0.09,VWS V14.01,2013-03-09 03:11:00,
2013-03-08 21:16:00,32.8,28.2,30.16,East,96,1.0,3.0,83,0.00,,SCT090,0.09,VWS V14.01,2013-03-09 03:16:00,
2013-03-08 21:21:00,32.9,28.3,30.16,East,83,2.0,3.0,83,0.00,,SCT090,0.09,VWS V14.01,2013-03-09 03:21:00,
2013-03-08 21:26:00,32.9,28.3,30.16,East,79,2.0,3.0,83,0.00,,SCT090,0.09,VWS V14.01,2013-03-09 03:26:00,
2013-03-08 21:31:00,32.8,28.2,30.16,East,91,0.0,2.0,83,0.00,,SCT100,0.09,VWS V14.01,2013-03-09 03:31:00,
2013-03-08 21:36:00,32.7,28.1,30.16,East,93,1.0,2.0,83,0.00,,SCT100,0.09,VWS V14.01,2013-03-09 03:36:00,
2013-03-08 21:41:00,32.7,28.1,30.16,East,82,1.0,2.0,83,0.00,,SCT100,0.09,VWS V14.01,2013-03-09 03:41:00,
2013-03-08 21:46:00,32.6,28.0,30.16,East,99,1.0,2.0,83,0.00,,SCT100,0.09,VWS V14.01,2013-03-09 03:46:00,
2013-03-08 21:51:00,32.4,27.8,30.16,East,98,0.0,2.0,83,0.00,,SCT110,0.09,VWS V14.01,2013-03-09 03:51:00,
2013-03-08 21:56:00,32.2,27.9,30.16,East,97,1.0,2.0,84,0.00,,SCT120,0.09,VWS V14.01,2013-03-09 03:56:00,
2013-03-08 22:01:00,32.0,27.7,30.15,East,79,1.0,2.0,84,0.00,,SCT110,0.09,VWS V14.01,2013-03-09 04:01:00,
2013-03-08 22:06:00,32.1,28.1,30.15,East,79,2.0,3.0,85,0.00,,SCT120,0.09,VWS V14.01,2013-03-09 04:06:00,
2013-03-08 22:11:00,32.0,28.0,30.15,East,82,2.0,3.0,85,0.00,,SCT110,0.09,VWS V14.01,2013-03-09 04:11:00,
2013-03-08 22:16:00,32.0,27.7,30.15,East,97,2.0,3.0,84,0.00,,SCT120,0.09,VWS V14.01,2013-03-09 04:16:00,
2013-03-08 22:21:00,31.9,27.6,30.15,East,91,1.0,3.0,84,0.00,,SCT110,0.09,VWS V14.01,2013-03-09 04:21:00,
2013-03-08 22:26:00,31.8,27.5,30.15,East,98,0.0,3.0,84,0.00,,SCT110,0.09,VWS V14.01,2013-03-09 04:26:00,
2013-03-08 22:31:00,31.7,27.7,30.14,East,99,1.0,1.0,85,0.00,,SCT110,0.09,VWS V14.01,2013-03-09 04:31:00,
2013-03-08 22:36:00,31.6,27.6,30.14,ESE,112,1.0,1.0,85,0.00,,SCT110,0.09,VWS V14.01,2013-03-09 04:36:00,
2013-03-08 22:41:00,31.7,27.7,30.14,ESE,112,1.0,2.0,85,0.00,,SCT110,0.09,VWS V14.01,2013-03-09 04:41:00,
2013-03-08 22:46:00,31.7,27.7,30.14,ESE,113,1.0,2.0,85,0.00,,SCT110,0.09,VWS V14.01,2013-03-09 04:46:00,
2013-03-08 22:51:00,32.0,28.0,30.14,ESE,117,2.0,3.0,85,0.00,,CLR,0.09,VWS V14.01,2013-03-09 04:51:00,
2013-03-08 22:56:00,32.2,27.9,30.13,ESE,113,2.0,3.0,84,0.00,,CLR,0.09,VWS V14.01,2013-03-09 04:56:00,
2013-03-08 23:00:00,32.2,27.9,30.13,ESE,123,3.0,3.0,84,0.00,,CLR,0.09,VWS V14.01,2013-03-09 05:00:00,
2013-03-08 23:05:00,32.3,28.0,30.13,ESE,113,2.0,4.0,84,0.00,,CLR,0.09,VWS V14.01,2013-03-09 05:05:00,
2013-03-08 23:10:00,32.4,28.1,30.12,ESE,116,2.0,4.0,84,0.00,,CLR,0.09,VWS V14.01,2013-03-09 05:10:00,
2013-03-08 23:15:00,32.5,27.9,30.12,ESE,110,3.0,4.0,83,0.00,,CLR,0.09,VWS V14.01,2013-03-09 05:15:00,
2013-03-08 23:20:00,32.5,27.9,30.12,ESE,116,1.0,4.0,83,0.00,,CLR,0.09,VWS V14.01,2013-03-09 05:20:00,
2013-03-08 23:25:00,32.7,28.1,30.12,ESE,113,3.0,4.0,83,0.00,,CLR,0.09,VWS V14.01,2013-03-09 05:25:00,
2013-03-08 23:30:00,32.8,28.2,30.11,ESE,110,3.0,4.0,83,0.00,,CLR,0.09,VWS V14.01,2013-03-09 05:30:00,
2013-03-08 23:35:00,33.0,28.4,30.11,ESE,116,2.0,5.0,83,0.00,,CLR,0.09,VWS V14.01,2013-03-09 05:35:00,
2013-03-08 23:40:00,33.2,28.3,30.11,SE,128,2.0,5.0,82,0.00,,CLR,0.09,VWS V14.01,2013-03-09 05:40:00,
2013-03-08 23:45:00,33.4,28.5,30.11,SE,126,3.0,5.0,82,0.00,,CLR,0.09,VWS V14.01,2013-03-09 05:45:00,
2013-03-08 23:50:00,33.6,28.7,30.11,ESE,113,3.0,6.0,82,0.00,,CLR,0.09,VWS V14.01,2013-03-09 05:50:00,
2013-03-08 23:55:00,33.6,28.7,30.11,SE,135,4.0,6.0,82,0.00,,CLR,0.09,VWS V14.01,2013-03-09 05:55:00,